sensor_id;sensor_type;location;lat;lon;timestamp;P1;durP1;ratioP1;P2;durP2;ratioP2
2896;SDS011;1458;49.728;9.228;2023-02-21T00:00:12;0.40;;;0.40;;
2896;SDS011;1458;49.728;9.228;2023-02-21T00:02:57;0.50;;;0.50;;
2896;SDS011;1458;49.728;9.228;2023-02-21T00:05:42;0.40;;;0.40;;
2896;SDS011;1458;49.728;9.228;2023-02-21T00:08:27;0.40;;;0.40;;
2896;SDS011;1458;49.728;9.228;2023-02-21T00:11:14;0.40;;;0.40;;
2896;SDS011;1458;49.728;9.228;2023-02-21T00:13:59;0.40;;;0.40;;
2896;SDS011;1458;49.728;9.228;2023-02-21T00:16:45;0.50;;;0.50;;
2896;SDS011;1458;49.728;9.228;2023-02-21T00:19:30;0.50;;;0.50;;
2896;SDS011;1458;49.728;9.228;2023-02-21T00:22:15;0.40;;;0.40;;
2896;SDS011;1458;49.728;9.228;2023-02-21T00:24:59;0.50;;;0.50;;
2896;SDS011;1458;49.728;9.228;2023-02-21T00:27:44;0.60;;;0.60;;
2896;SDS011;1458;49.728;9.228;2023-02-21T00:30:29;0.50;;;0.50;;
2896;SDS011;1458;49.728;9.228;2023-02-21T00:33:15;0.40;;;0.40;;
2896;SDS011;1458;49.728;9.228;2023-02-21T00:36:00;0.47;;;0.47;;
2896;SDS011;1458;49.728;9.228;2023-02-21T00:38:45;0.40;;;0.40;;
2896;SDS011;1458;49.728;9.228;2023-02-21T00:41:29;0.40;;;0.40;;
2896;SDS011;1458;49.728;9.228;2023-02-21T00:44:14;0.40;;;0.40;;
2896;SDS011;1458;49.728;9.228;2023-02-21T00:46:59;0.50;;;0.50;;
2896;SDS011;1458;49.728;9.228;2023-02-21T00:49:53;0.40;;;0.40;;
2896;SDS011;1458;49.728;9.228;2023-02-21T00:52:37;0.40;;;0.40;;
2896;SDS011;1458;49.728;9.228;2023-02-21T00:55:22;0.40;;;0.40;;
2896;SDS011;1458;49.728;9.228;2023-02-21T00:58:09;0.40;;;0.40;;
2896;SDS011;1458;49.728;9.228;2023-02-21T01:00:59;0.40;;;0.40;;
2896;SDS011;1458;49.728;9.228;2023-02-21T01:03:47;0.40;;;0.40;;
2896;SDS011;1458;49.728;9.228;2023-02-21T01:06:33;0.47;;;0.47;;
2896;SDS011;1458;49.728;9.228;2023-02-21T01:09:18;0.40;;;0.40;;
2896;SDS011;1458;49.728;9.228;2023-02-21T01:15:38;0.40;;;0.40;;
2896;SDS011;1458;49.728;9.228;2023-02-21T01:18:22;0.50;;;0.50;;
2896;SDS011;1458;49.728;9.228;2023-02-21T01:21:10;0.43;;;0.43;;
2896;SDS011;1458;49.728;9.228;2023-02-21T01:24:12;0.50;;;0.50;;
2896;SDS011;1458;49.728;9.228;2023-02-21T01:27:04;0.40;;;0.40;;
2896;SDS011;1458;49.728;9.228;2023-02-21T01:29:49;0.40;;;0.40;;
2896;SDS011;1458;49.728;9.228;2023-02-21T01:32:36;0.47;;;0.47;;
2896;SDS011;1458;49.728;9.228;2023-02-21T01:38:36;0.40;;;0.40;;
2896;SDS011;1458;49.728;9.228;2023-02-21T01:41:22;0.40;;;0.40;;
2896;SDS011;1458;49.728;9.228;2023-02-21T01:44:26;0.50;;;0.50;;
2896;SDS011;1458;49.728;9.228;2023-02-21T01:47:19;0.50;;;0.50;;
2896;SDS011;1458;49.728;9.228;2023-02-21T01:50:09;0.40;;;0.40;;
2896;SDS011;1458;49.728;9.228;2023-02-21T01:52:58;0.60;;;0.60;;
2896;SDS011;1458;49.728;9.228;2023-02-21T01:55:46;0.40;;;0.40;;
2896;SDS011;1458;49.728;9.228;2023-02-21T01:58:51;0.40;;;0.40;;
2896;SDS011;1458;49.728;9.228;2023-02-21T02:01:39;0.40;;;0.40;;
2896;SDS011;1458;49.728;9.228;2023-02-21T02:04:30;0.40;;;0.40;;
2896;SDS011;1458;49.728;9.228;2023-02-21T02:07:16;0.40;;;0.40;;
2896;SDS011;1458;49.728;9.228;2023-02-21T02:10:15;0.40;;;0.40;;
2896;SDS011;1458;49.728;9.228;2023-02-21T02:13:05;0.60;;;0.60;;
2896;SDS011;1458;49.728;9.228;2023-02-21T02:15:51;0.40;;;0.40;;
2896;SDS011;1458;49.728;9.228;2023-02-21T02:18:33;0.40;;;0.40;;
2896;SDS011;1458;49.728;9.228;2023-02-21T02:24:57;0.50;;;0.50;;
2896;SDS011;1458;49.728;9.228;2023-02-21T02:27:43;0.40;;;0.40;;
2896;SDS011;1458;49.728;9.228;2023-02-21T02:37:04;0.40;;;0.40;;
2896;SDS011;1458;49.728;9.228;2023-02-21T02:39:41;0.50;;;0.50;;
2896;SDS011;1458;49.728;9.228;2023-02-21T02:42:15;0.50;;;0.50;;
2896;SDS011;1458;49.728;9.228;2023-02-21T02:44:56;0.40;;;0.40;;
2896;SDS011;1458;49.728;9.228;2023-02-21T02:47:30;0.40;;;0.40;;
2896;SDS011;1458;49.728;9.228;2023-02-21T02:50:04;0.40;;;0.40;;
2896;SDS011;1458;49.728;9.228;2023-02-21T02:52:34;0.40;;;0.40;;
2896;SDS011;1458;49.728;9.228;2023-02-21T02:55:04;0.40;;;0.40;;
2896;SDS011;1458;49.728;9.228;2023-02-21T02:57:50;0.40;;;0.40;;
2896;SDS011;1458;49.728;9.228;2023-02-21T03:00:19;0.50;;;0.50;;
2896;SDS011;1458;49.728;9.228;2023-02-21T03:02:52;0.40;;;0.40;;
2896;SDS011;1458;49.728;9.228;2023-02-21T03:05:41;0.40;;;0.40;;
2896;SDS011;1458;49.728;9.228;2023-02-21T03:08:21;0.40;;;0.40;;
2896;SDS011;1458;49.728;9.228;2023-02-21T03:10:56;0.50;;;0.50;;
2896;SDS011;1458;49.728;9.228;2023-02-21T03:13:36;0.40;;;0.40;;
2896;SDS011;1458;49.728;9.228;2023-02-21T03:16:13;0.40;;;0.40;;
2896;SDS011;1458;49.728;9.228;2023-02-21T03:18:47;0.40;;;0.40;;
2896;SDS011;1458;49.728;9.228;2023-02-21T03:21:20;0.40;;;0.40;;
2896;SDS011;1458;49.728;9.228;2023-02-21T03:23:56;0.40;;;0.40;;
2896;SDS011;1458;49.728;9.228;2023-02-21T03:26:27;0.40;;;0.40;;
2896;SDS011;1458;49.728;9.228;2023-02-21T03:29:12;0.40;;;0.40;;
2896;SDS011;1458;49.728;9.228;2023-02-21T03:31:43;0.40;;;0.40;;
2896;SDS011;1458;49.728;9.228;2023-02-21T03:34:17;0.40;;;0.40;;
2896;SDS011;1458;49.728;9.228;2023-02-21T03:36:47;0.40;;;0.40;;
2896;SDS011;1458;49.728;9.228;2023-02-21T03:39:17;0.40;;;0.40;;
2896;SDS011;1458;49.728;9.228;2023-02-21T03:41:44;0.40;;;0.40;;
2896;SDS011;1458;49.728;9.228;2023-02-21T03:44:12;0.40;;;0.40;;
2896;SDS011;1458;49.728;9.228;2023-02-21T03:46:40;0.50;;;0.50;;
2896;SDS011;1458;49.728;9.228;2023-02-21T03:49:07;0.40;;;0.40;;
2896;SDS011;1458;49.728;9.228;2023-02-21T03:51:35;0.40;;;0.40;;
2896;SDS011;1458;49.728;9.228;2023-02-21T03:54:03;0.40;;;0.40;;
2896;SDS011;1458;49.728;9.228;2023-02-21T03:56:38;0.50;;;0.50;;
2896;SDS011;1458;49.728;9.228;2023-02-21T03:59:17;0.40;;;0.40;;
2896;SDS011;1458;49.728;9.228;2023-02-21T04:01:45;0.40;;;0.40;;
2896;SDS011;1458;49.728;9.228;2023-02-21T04:04:13;0.40;;;0.40;;
2896;SDS011;1458;49.728;9.228;2023-02-21T04:06:41;0.40;;;0.40;;
2896;SDS011;1458;49.728;9.228;2023-02-21T04:09:11;0.40;;;0.40;;
2896;SDS011;1458;49.728;9.228;2023-02-21T04:11:41;0.50;;;0.50;;
2896;SDS011;1458;49.728;9.228;2023-02-21T04:14:09;0.50;;;0.50;;
2896;SDS011;1458;49.728;9.228;2023-02-21T04:16:37;0.47;;;0.47;;
2896;SDS011;1458;49.728;9.228;2023-02-21T04:19:04;0.40;;;0.40;;
2896;SDS011;1458;49.728;9.228;2023-02-21T04:21:32;0.43;;;0.43;;
2896;SDS011;1458;49.728;9.228;2023-02-21T04:23:59;0.50;;;0.50;;
2896;SDS011;1458;49.728;9.228;2023-02-21T04:26:31;0.50;;;0.50;;
2896;SDS011;1458;49.728;9.228;2023-02-21T04:28:59;0.50;;;0.50;;
2896;SDS011;1458;49.728;9.228;2023-02-21T04:31:27;0.50;;;0.50;;
2896;SDS011;1458;49.728;9.228;2023-02-21T04:33:59;0.53;;;0.53;;
2896;SDS011;1458;49.728;9.228;2023-02-21T04:36:26;0.50;;;0.50;;
2896;SDS011;1458;49.728;9.228;2023-02-21T04:38:54;0.50;;;0.50;;
2896;SDS011;1458;49.728;9.228;2023-02-21T04:41:22;0.40;;;0.40;;
2896;SDS011;1458;49.728;9.228;2023-02-21T04:43:50;0.50;;;0.50;;
2896;SDS011;1458;49.728;9.228;2023-02-21T04:46:18;0.50;;;0.50;;
2896;SDS011;1458;49.728;9.228;2023-02-21T04:48:46;0.50;;;0.50;;
2896;SDS011;1458;49.728;9.228;2023-02-21T04:51:16;0.60;;;0.60;;
2896;SDS011;1458;49.728;9.228;2023-02-21T04:53:47;0.50;;;0.50;;
2896;SDS011;1458;49.728;9.228;2023-02-21T04:56:16;0.40;;;0.40;;
2896;SDS011;1458;49.728;9.228;2023-02-21T04:58:46;0.50;;;0.50;;
2896;SDS011;1458;49.728;9.228;2023-02-21T05:01:16;0.40;;;0.40;;
2896;SDS011;1458;49.728;9.228;2023-02-21T05:03:45;0.50;;;0.50;;
2896;SDS011;1458;49.728;9.228;2023-02-21T05:06:15;0.50;;;0.50;;
2896;SDS011;1458;49.728;9.228;2023-02-21T05:08:44;0.40;;;0.40;;
2896;SDS011;1458;49.728;9.228;2023-02-21T05:11:11;0.40;;;0.40;;
2896;SDS011;1458;49.728;9.228;2023-02-21T05:13:38;0.40;;;0.40;;
2896;SDS011;1458;49.728;9.228;2023-02-21T05:16:06;0.50;;;0.50;;
2896;SDS011;1458;49.728;9.228;2023-02-21T05:18:35;0.50;;;0.50;;
2896;SDS011;1458;49.728;9.228;2023-02-21T05:21:02;0.50;;;0.50;;
2896;SDS011;1458;49.728;9.228;2023-02-21T05:23:31;0.40;;;0.40;;
2896;SDS011;1458;49.728;9.228;2023-02-21T05:26:05;0.50;;;0.50;;
2896;SDS011;1458;49.728;9.228;2023-02-21T05:28:35;0.50;;;0.50;;
2896;SDS011;1458;49.728;9.228;2023-02-21T05:31:03;0.50;;;0.50;;
2896;SDS011;1458;49.728;9.228;2023-02-21T05:33:31;0.40;;;0.40;;
2896;SDS011;1458;49.728;9.228;2023-02-21T05:36:00;0.40;;;0.40;;
2896;SDS011;1458;49.728;9.228;2023-02-21T05:38:28;0.40;;;0.40;;
2896;SDS011;1458;49.728;9.228;2023-02-21T05:40:55;0.40;;;0.40;;
2896;SDS011;1458;49.728;9.228;2023-02-21T05:43:23;0.50;;;0.50;;
2896;SDS011;1458;49.728;9.228;2023-02-21T05:45:57;0.40;;;0.40;;
2896;SDS011;1458;49.728;9.228;2023-02-21T05:48:25;0.40;;;0.40;;
2896;SDS011;1458;49.728;9.228;2023-02-21T05:50:52;0.40;;;0.40;;
2896;SDS011;1458;49.728;9.228;2023-02-21T05:53:21;0.40;;;0.40;;
2896;SDS011;1458;49.728;9.228;2023-02-21T05:55:51;0.40;;;0.40;;
2896;SDS011;1458;49.728;9.228;2023-02-21T05:58:18;0.50;;;0.50;;
2896;SDS011;1458;49.728;9.228;2023-02-21T06:00:46;0.40;;;0.40;;
2896;SDS011;1458;49.728;9.228;2023-02-21T06:03:13;0.50;;;0.50;;
2896;SDS011;1458;49.728;9.228;2023-02-21T06:05:40;0.40;;;0.40;;
2896;SDS011;1458;49.728;9.228;2023-02-21T06:08:08;0.47;;;0.47;;
2896;SDS011;1458;49.728;9.228;2023-02-21T06:10:36;0.40;;;0.40;;
2896;SDS011;1458;49.728;9.228;2023-02-21T06:13:04;0.50;;;0.50;;
2896;SDS011;1458;49.728;9.228;2023-02-21T06:15:31;0.50;;;0.50;;
2896;SDS011;1458;49.728;9.228;2023-02-21T06:17:58;0.40;;;0.40;;
2896;SDS011;1458;49.728;9.228;2023-02-21T06:20:26;0.50;;;0.50;;
2896;SDS011;1458;49.728;9.228;2023-02-21T06:22:53;0.40;;;0.40;;
2896;SDS011;1458;49.728;9.228;2023-02-21T06:25:21;0.50;;;0.50;;
2896;SDS011;1458;49.728;9.228;2023-02-21T06:27:49;0.47;;;0.47;;
2896;SDS011;1458;49.728;9.228;2023-02-21T06:30:17;0.40;;;0.40;;
2896;SDS011;1458;49.728;9.228;2023-02-21T06:32:44;0.40;;;0.40;;
2896;SDS011;1458;49.728;9.228;2023-02-21T06:35:11;0.50;;;0.50;;
2896;SDS011;1458;49.728;9.228;2023-02-21T06:37:39;0.50;;;0.50;;
2896;SDS011;1458;49.728;9.228;2023-02-21T06:40:07;0.50;;;0.50;;
2896;SDS011;1458;49.728;9.228;2023-02-21T06:42:35;0.50;;;0.50;;
2896;SDS011;1458;49.728;9.228;2023-02-21T06:45:04;0.50;;;0.50;;
2896;SDS011;1458;49.728;9.228;2023-02-21T06:47:31;0.40;;;0.40;;
2896;SDS011;1458;49.728;9.228;2023-02-21T06:49:59;0.50;;;0.50;;
2896;SDS011;1458;49.728;9.228;2023-02-21T06:52:26;0.50;;;0.50;;
2896;SDS011;1458;49.728;9.228;2023-02-21T06:54:53;0.40;;;0.40;;
2896;SDS011;1458;49.728;9.228;2023-02-21T06:57:21;0.40;;;0.40;;
2896;SDS011;1458;49.728;9.228;2023-02-21T06:59:49;0.50;;;0.50;;
2896;SDS011;1458;49.728;9.228;2023-02-21T07:02:18;0.50;;;0.50;;
2896;SDS011;1458;49.728;9.228;2023-02-21T07:04:46;0.40;;;0.40;;
2896;SDS011;1458;49.728;9.228;2023-02-21T07:07:14;0.50;;;0.50;;
2896;SDS011;1458;49.728;9.228;2023-02-21T07:09:41;0.40;;;0.40;;
2896;SDS011;1458;49.728;9.228;2023-02-21T07:12:09;0.50;;;0.50;;
2896;SDS011;1458;49.728;9.228;2023-02-21T07:14:37;0.50;;;0.50;;
2896;SDS011;1458;49.728;9.228;2023-02-21T07:17:04;0.50;;;0.50;;
2896;SDS011;1458;49.728;9.228;2023-02-21T07:19:33;0.50;;;0.50;;
2896;SDS011;1458;49.728;9.228;2023-02-21T07:22:01;0.40;;;0.40;;
2896;SDS011;1458;49.728;9.228;2023-02-21T07:24:28;0.40;;;0.40;;
2896;SDS011;1458;49.728;9.228;2023-02-21T07:26:55;0.43;;;0.43;;
2896;SDS011;1458;49.728;9.228;2023-02-21T07:29:23;0.40;;;0.40;;
2896;SDS011;1458;49.728;9.228;2023-02-21T07:31:50;0.40;;;0.40;;
2896;SDS011;1458;49.728;9.228;2023-02-21T07:34:18;0.40;;;0.40;;
2896;SDS011;1458;49.728;9.228;2023-02-21T07:36:47;0.50;;;0.50;;
2896;SDS011;1458;49.728;9.228;2023-02-21T07:39:15;0.40;;;0.40;;
2896;SDS011;1458;49.728;9.228;2023-02-21T07:41:42;0.50;;;0.50;;
2896;SDS011;1458;49.728;9.228;2023-02-21T07:44:14;0.40;;;0.40;;
2896;SDS011;1458;49.728;9.228;2023-02-21T07:46:41;0.40;;;0.40;;
2896;SDS011;1458;49.728;9.228;2023-02-21T07:49:10;0.40;;;0.40;;
2896;SDS011;1458;49.728;9.228;2023-02-21T07:51:38;0.40;;;0.40;;
2896;SDS011;1458;49.728;9.228;2023-02-21T07:54:07;0.50;;;0.50;;
2896;SDS011;1458;49.728;9.228;2023-02-21T07:56:34;0.40;;;0.40;;
2896;SDS011;1458;49.728;9.228;2023-02-21T07:59:01;0.40;;;0.40;;
2896;SDS011;1458;49.728;9.228;2023-02-21T08:01:29;0.40;;;0.40;;
2896;SDS011;1458;49.728;9.228;2023-02-21T08:03:56;0.40;;;0.40;;
2896;SDS011;1458;49.728;9.228;2023-02-21T08:06:23;0.40;;;0.40;;
2896;SDS011;1458;49.728;9.228;2023-02-21T08:08:51;0.50;;;0.50;;
2896;SDS011;1458;49.728;9.228;2023-02-21T08:11:20;0.40;;;0.40;;
2896;SDS011;1458;49.728;9.228;2023-02-21T08:13:47;0.40;;;0.40;;
2896;SDS011;1458;49.728;9.228;2023-02-21T08:16:14;0.50;;;0.50;;
2896;SDS011;1458;49.728;9.228;2023-02-21T08:18:42;0.43;;;0.43;;
2896;SDS011;1458;49.728;9.228;2023-02-21T08:21:12;0.40;;;0.40;;
2896;SDS011;1458;49.728;9.228;2023-02-21T08:23:39;0.43;;;0.43;;
2896;SDS011;1458;49.728;9.228;2023-02-21T08:26:07;0.40;;;0.40;;
2896;SDS011;1458;49.728;9.228;2023-02-21T08:28:35;0.50;;;0.50;;
2896;SDS011;1458;49.728;9.228;2023-02-21T08:31:03;0.50;;;0.50;;
2896;SDS011;1458;49.728;9.228;2023-02-21T08:33:31;0.50;;;0.50;;
2896;SDS011;1458;49.728;9.228;2023-02-21T08:35:58;0.50;;;0.50;;
2896;SDS011;1458;49.728;9.228;2023-02-21T08:38:25;0.50;;;0.50;;
2896;SDS011;1458;49.728;9.228;2023-02-21T08:40:53;0.60;;;0.60;;
2896;SDS011;1458;49.728;9.228;2023-02-21T08:43:21;0.80;;;0.80;;
2896;SDS011;1458;49.728;9.228;2023-02-21T08:45:50;0.60;;;0.60;;
2896;SDS011;1458;49.728;9.228;2023-02-21T08:48:18;0.60;;;0.60;;
2896;SDS011;1458;49.728;9.228;2023-02-21T08:50:45;0.70;;;0.70;;
2896;SDS011;1458;49.728;9.228;2023-02-21T08:53:13;0.70;;;0.70;;
2896;SDS011;1458;49.728;9.228;2023-02-21T08:55:40;0.70;;;0.70;;
2896;SDS011;1458;49.728;9.228;2023-02-21T08:58:08;0.80;;;0.80;;
2896;SDS011;1458;49.728;9.228;2023-02-21T09:00:37;0.97;;;0.97;;
2896;SDS011;1458;49.728;9.228;2023-02-21T09:03:06;0.90;;;0.90;;
2896;SDS011;1458;49.728;9.228;2023-02-21T09:05:33;0.90;;;0.90;;
2896;SDS011;1458;49.728;9.228;2023-02-21T09:08:03;0.80;;;0.80;;
2896;SDS011;1458;49.728;9.228;2023-02-21T09:10:34;0.80;;;0.80;;
2896;SDS011;1458;49.728;9.228;2023-02-21T09:13:02;0.80;;;0.80;;
2896;SDS011;1458;49.728;9.228;2023-02-21T09:15:30;0.80;;;0.80;;
2896;SDS011;1458;49.728;9.228;2023-02-21T09:17:57;0.80;;;0.80;;
2896;SDS011;1458;49.728;9.228;2023-02-21T09:20:26;0.77;;;0.77;;
2896;SDS011;1458;49.728;9.228;2023-02-21T09:22:53;0.70;;;0.70;;
2896;SDS011;1458;49.728;9.228;2023-02-21T09:25:22;0.73;;;0.73;;
2896;SDS011;1458;49.728;9.228;2023-02-21T09:27:50;0.70;;;0.70;;
2896;SDS011;1458;49.728;9.228;2023-02-21T09:30:19;0.80;;;0.80;;
2896;SDS011;1458;49.728;9.228;2023-02-21T09:32:50;0.73;;;0.73;;
2896;SDS011;1458;49.728;9.228;2023-02-21T09:35:17;0.83;;;0.83;;
2896;SDS011;1458;49.728;9.228;2023-02-21T09:37:46;0.70;;;0.70;;
2896;SDS011;1458;49.728;9.228;2023-02-21T09:40:15;0.80;;;0.80;;
2896;SDS011;1458;49.728;9.228;2023-02-21T09:42:51;0.60;;;0.60;;
2896;SDS011;1458;49.728;9.228;2023-02-21T09:45:20;0.80;;;0.80;;
2896;SDS011;1458;49.728;9.228;2023-02-21T09:47:50;0.90;;;0.90;;
2896;SDS011;1458;49.728;9.228;2023-02-21T09:50:22;0.80;;;0.80;;
2896;SDS011;1458;49.728;9.228;2023-02-21T09:52:56;0.90;;;0.90;;
2896;SDS011;1458;49.728;9.228;2023-02-21T09:55:27;0.80;;;0.80;;
2896;SDS011;1458;49.728;9.228;2023-02-21T09:57:58;1.00;;;1.00;;
2896;SDS011;1458;49.728;9.228;2023-02-21T10:00:28;1.07;;;1.07;;
2896;SDS011;1458;49.728;9.228;2023-02-21T10:03:03;0.90;;;0.90;;
2896;SDS011;1458;49.728;9.228;2023-02-21T10:05:53;1.00;;;1.00;;
2896;SDS011;1458;49.728;9.228;2023-02-21T10:08:31;1.10;;;1.10;;
2896;SDS011;1458;49.728;9.228;2023-02-21T10:11:09;1.00;;;1.00;;
2896;SDS011;1458;49.728;9.228;2023-02-21T10:14:06;1.20;;;1.20;;
2896;SDS011;1458;49.728;9.228;2023-02-21T10:16:46;1.10;;;1.10;;
2896;SDS011;1458;49.728;9.228;2023-02-21T10:19:20;1.20;;;1.20;;
2896;SDS011;1458;49.728;9.228;2023-02-21T10:21:55;1.00;;;1.00;;
2896;SDS011;1458;49.728;9.228;2023-02-21T10:24:34;1.00;;;1.00;;
2896;SDS011;1458;49.728;9.228;2023-02-21T10:27:03;1.10;;;1.10;;
2896;SDS011;1458;49.728;9.228;2023-02-21T10:29:37;1.27;;;1.27;;
2896;SDS011;1458;49.728;9.228;2023-02-21T10:32:10;1.30;;;1.30;;
2896;SDS011;1458;49.728;9.228;2023-02-21T10:34:38;1.20;;;1.20;;
2896;SDS011;1458;49.728;9.228;2023-02-21T10:37:14;1.10;;;1.10;;
2896;SDS011;1458;49.728;9.228;2023-02-21T10:40:00;1.10;;;1.10;;
2896;SDS011;1458;49.728;9.228;2023-02-21T10:42:33;1.20;;;1.20;;
2896;SDS011;1458;49.728;9.228;2023-02-21T10:45:05;1.20;;;1.20;;
2896;SDS011;1458;49.728;9.228;2023-02-21T10:47:38;1.30;;;1.30;;
2896;SDS011;1458;49.728;9.228;2023-02-21T10:53:08;1.33;;;1.33;;
2896;SDS011;1458;49.728;9.228;2023-02-21T10:58:55;1.30;;;1.30;;
2896;SDS011;1458;49.728;9.228;2023-02-21T11:01:31;1.50;;;1.50;;
2896;SDS011;1458;49.728;9.228;2023-02-21T11:04:04;1.50;;;1.50;;
2896;SDS011;1458;49.728;9.228;2023-02-21T11:06:36;1.70;;;1.70;;
2896;SDS011;1458;49.728;9.228;2023-02-21T11:12:17;1.60;;;1.60;;
2896;SDS011;1458;49.728;9.228;2023-02-21T11:15:04;1.40;;;1.40;;
2896;SDS011;1458;49.728;9.228;2023-02-21T11:17:43;2.03;;;2.03;;
2896;SDS011;1458;49.728;9.228;2023-02-21T11:20:15;2.00;;;2.00;;
2896;SDS011;1458;49.728;9.228;2023-02-21T11:22:45;2.00;;;2.00;;
2896;SDS011;1458;49.728;9.228;2023-02-21T11:25:15;2.10;;;2.10;;
2896;SDS011;1458;49.728;9.228;2023-02-21T11:28:01;2.40;;;2.40;;
2896;SDS011;1458;49.728;9.228;2023-02-21T11:30:32;2.17;;;2.17;;
2896;SDS011;1458;49.728;9.228;2023-02-21T11:33:02;2.30;;;2.30;;
2896;SDS011;1458;49.728;9.228;2023-02-21T11:35:32;2.40;;;2.40;;
2896;SDS011;1458;49.728;9.228;2023-02-21T11:38:04;2.50;;;2.50;;
2896;SDS011;1458;49.728;9.228;2023-02-21T11:40:40;2.70;;;2.70;;
2896;SDS011;1458;49.728;9.228;2023-02-21T11:43:12;2.90;;;2.90;;
2896;SDS011;1458;49.728;9.228;2023-02-21T11:48:46;2.40;;;2.40;;
2896;SDS011;1458;49.728;9.228;2023-02-21T11:51:28;2.60;;;2.60;;
2896;SDS011;1458;49.728;9.228;2023-02-21T11:54:07;3.00;;;3.00;;
2896;SDS011;1458;49.728;9.228;2023-02-21T11:56:41;3.00;;;3.00;;
2896;SDS011;1458;49.728;9.228;2023-02-21T12:02:16;2.80;;;2.80;;
2896;SDS011;1458;49.728;9.228;2023-02-21T12:05:17;2.90;;;2.90;;
2896;SDS011;1458;49.728;9.228;2023-02-21T12:08:04;3.07;;;3.07;;
2896;SDS011;1458;49.728;9.228;2023-02-21T12:10:50;3.30;;;3.30;;
2896;SDS011;1458;49.728;9.228;2023-02-21T12:13:29;3.23;;;3.23;;
2896;SDS011;1458;49.728;9.228;2023-02-21T12:16:09;3.20;;;3.20;;
2896;SDS011;1458;49.728;9.228;2023-02-21T12:18:51;3.60;;;3.60;;
2896;SDS011;1458;49.728;9.228;2023-02-21T12:21:48;3.40;;;3.40;;
2896;SDS011;1458;49.728;9.228;2023-02-21T12:24:33;3.70;;;3.70;;
2896;SDS011;1458;49.728;9.228;2023-02-21T12:27:15;3.30;;;3.30;;
2896;SDS011;1458;49.728;9.228;2023-02-21T12:29:55;3.60;;;3.60;;
2896;SDS011;1458;49.728;9.228;2023-02-21T12:32:47;3.60;;;3.60;;
2896;SDS011;1458;49.728;9.228;2023-02-21T12:38:30;4.33;;;4.33;;
2896;SDS011;1458;49.728;9.228;2023-02-21T12:41:09;3.90;;;3.90;;
2896;SDS011;1458;49.728;9.228;2023-02-21T12:43:51;4.70;;;4.70;;
2896;SDS011;1458;49.728;9.228;2023-02-21T12:46:25;4.60;;;4.60;;
2896;SDS011;1458;49.728;9.228;2023-02-21T12:49:00;4.90;;;4.90;;
2896;SDS011;1458;49.728;9.228;2023-02-21T12:51:32;4.70;;;4.70;;
2896;SDS011;1458;49.728;9.228;2023-02-21T12:54:05;5.00;;;5.00;;
2896;SDS011;1458;49.728;9.228;2023-02-21T12:56:39;5.50;;;5.50;;
2896;SDS011;1458;49.728;9.228;2023-02-21T12:59:14;5.50;;;5.50;;
2896;SDS011;1458;49.728;9.228;2023-02-21T13:01:48;5.40;;;5.40;;
2896;SDS011;1458;49.728;9.228;2023-02-21T13:04:23;5.30;;;5.30;;
2896;SDS011;1458;49.728;9.228;2023-02-21T13:07:01;4.90;;;4.90;;
2896;SDS011;1458;49.728;9.228;2023-02-21T13:09:44;5.07;;;5.07;;
2896;SDS011;1458;49.728;9.228;2023-02-21T13:12:18;4.90;;;4.90;;
2896;SDS011;1458;49.728;9.228;2023-02-21T13:14:53;5.10;;;5.10;;
2896;SDS011;1458;49.728;9.228;2023-02-21T13:17:26;5.60;;;5.60;;
2896;SDS011;1458;49.728;9.228;2023-02-21T13:19:57;5.27;;;5.27;;
2896;SDS011;1458;49.728;9.228;2023-02-21T13:30:01;5.60;;;5.60;;
2896;SDS011;1458;49.728;9.228;2023-02-21T13:32:38;5.90;;;5.90;;
2896;SDS011;1458;49.728;9.228;2023-02-21T13:35:08;5.90;;;5.90;;
2896;SDS011;1458;49.728;9.228;2023-02-21T13:37:42;6.10;;;6.10;;
2896;SDS011;1458;49.728;9.228;2023-02-21T13:40:17;6.33;;;6.33;;
2896;SDS011;1458;49.728;9.228;2023-02-21T13:42:57;6.80;;;6.70;;
2896;SDS011;1458;49.728;9.228;2023-02-21T13:45:30;6.60;;;6.60;;
2896;SDS011;1458;49.728;9.228;2023-02-21T13:50:59;6.30;;;6.30;;
2896;SDS011;1458;49.728;9.228;2023-02-21T13:53:28;6.40;;;6.40;;
2896;SDS011;1458;49.728;9.228;2023-02-21T13:56:12;6.80;;;6.70;;
2896;SDS011;1458;49.728;9.228;2023-02-21T13:58:45;6.60;;;6.60;;
2896;SDS011;1458;49.728;9.228;2023-02-21T14:07:43;6.60;;;6.60;;
2896;SDS011;1458;49.728;9.228;2023-02-21T14:10:16;6.70;;;6.60;;
2896;SDS011;1458;49.728;9.228;2023-02-21T14:12:54;6.50;;;6.50;;
2896;SDS011;1458;49.728;9.228;2023-02-21T14:15:34;6.43;;;6.40;;
2896;SDS011;1458;49.728;9.228;2023-02-21T14:18:05;7.07;;;6.97;;
2896;SDS011;1458;49.728;9.228;2023-02-21T14:20:44;7.17;;;7.07;;
2896;SDS011;1458;49.728;9.228;2023-02-21T14:23:16;7.77;;;7.67;;
2896;SDS011;1458;49.728;9.228;2023-02-21T14:25:56;7.40;;;7.30;;
2896;SDS011;1458;49.728;9.228;2023-02-21T14:31:44;7.30;;;7.20;;
2896;SDS011;1458;49.728;9.228;2023-02-21T14:34:26;7.30;;;7.20;;
2896;SDS011;1458;49.728;9.228;2023-02-21T14:37:02;7.90;;;7.80;;
2896;SDS011;1458;49.728;9.228;2023-02-21T14:39:39;7.70;;;7.60;;
2896;SDS011;1458;49.728;9.228;2023-02-21T14:45:21;7.87;;;7.77;;
2896;SDS011;1458;49.728;9.228;2023-02-21T14:48:15;7.60;;;7.50;;
2896;SDS011;1458;49.728;9.228;2023-02-21T14:51:05;7.57;;;7.47;;
2896;SDS011;1458;49.728;9.228;2023-02-21T14:57:04;7.47;;;7.37;;
2896;SDS011;1458;49.728;9.228;2023-02-21T15:00:16;7.77;;;7.67;;
2896;SDS011;1458;49.728;9.228;2023-02-21T15:02:50;7.40;;;7.30;;
2896;SDS011;1458;49.728;9.228;2023-02-21T15:05:25;7.30;;;7.20;;
2896;SDS011;1458;49.728;9.228;2023-02-21T15:07:58;7.53;;;7.43;;
2896;SDS011;1458;49.728;9.228;2023-02-21T15:10:38;7.60;;;7.50;;
2896;SDS011;1458;49.728;9.228;2023-02-21T15:13:20;7.07;;;6.97;;
2896;SDS011;1458;49.728;9.228;2023-02-21T15:15:54;6.27;;;6.27;;
2896;SDS011;1458;49.728;9.228;2023-02-21T15:18:25;7.07;;;6.97;;
2896;SDS011;1458;49.728;9.228;2023-02-21T15:21:02;7.40;;;7.30;;
2896;SDS011;1458;49.728;9.228;2023-02-21T15:23:33;7.10;;;7.00;;
2896;SDS011;1458;49.728;9.228;2023-02-21T15:26:13;7.10;;;7.00;;
2896;SDS011;1458;49.728;9.228;2023-02-21T15:28:48;7.17;;;7.07;;
2896;SDS011;1458;49.728;9.228;2023-02-21T15:31:31;7.13;;;7.03;;
2896;SDS011;1458;49.728;9.228;2023-02-21T15:34:00;6.90;;;6.80;;
2896;SDS011;1458;49.728;9.228;2023-02-21T15:36:27;7.30;;;7.20;;
2896;SDS011;1458;49.728;9.228;2023-02-21T15:38:58;7.10;;;7.00;;
2896;SDS011;1458;49.728;9.228;2023-02-21T15:41:31;6.70;;;6.60;;
2896;SDS011;1458;49.728;9.228;2023-02-21T15:44:06;7.10;;;7.00;;
2896;SDS011;1458;49.728;9.228;2023-02-21T15:46:40;6.50;;;6.50;;
2896;SDS011;1458;49.728;9.228;2023-02-21T15:49:13;6.90;;;6.80;;
2896;SDS011;1458;49.728;9.228;2023-02-21T15:51:46;6.70;;;6.60;;
2896;SDS011;1458;49.728;9.228;2023-02-21T15:57:04;6.87;;;6.77;;
2896;SDS011;1458;49.728;9.228;2023-02-21T15:59:55;6.70;;;6.60;;
2896;SDS011;1458;49.728;9.228;2023-02-21T16:02:45;6.50;;;6.50;;
2896;SDS011;1458;49.728;9.228;2023-02-21T16:05:22;6.47;;;6.47;;
2896;SDS011;1458;49.728;9.228;2023-02-21T16:07:52;6.00;;;6.00;;
2896;SDS011;1458;49.728;9.228;2023-02-21T16:10:26;6.40;;;6.40;;
2896;SDS011;1458;49.728;9.228;2023-02-21T16:12:57;6.30;;;6.30;;
2896;SDS011;1458;49.728;9.228;2023-02-21T16:15:28;6.17;;;6.17;;
2896;SDS011;1458;49.728;9.228;2023-02-21T16:17:58;5.40;;;5.40;;
2896;SDS011;1458;49.728;9.228;2023-02-21T16:20:29;4.50;;;4.50;;
2896;SDS011;1458;49.728;9.228;2023-02-21T16:23:11;4.00;;;4.00;;
2896;SDS011;1458;49.728;9.228;2023-02-21T16:25:58;4.10;;;4.10;;
2896;SDS011;1458;49.728;9.228;2023-02-21T16:28:28;3.30;;;3.30;;
2896;SDS011;1458;49.728;9.228;2023-02-21T16:30:59;3.60;;;3.60;;
2896;SDS011;1458;49.728;9.228;2023-02-21T16:33:29;2.83;;;2.83;;
2896;SDS011;1458;49.728;9.228;2023-02-21T16:35:58;2.70;;;2.70;;
2896;SDS011;1458;49.728;9.228;2023-02-21T16:38:27;2.30;;;2.30;;
2896;SDS011;1458;49.728;9.228;2023-02-21T16:40:54;2.30;;;2.30;;
2896;SDS011;1458;49.728;9.228;2023-02-21T16:43:22;2.10;;;2.10;;
2896;SDS011;1458;49.728;9.228;2023-02-21T16:45:52;2.10;;;2.10;;
2896;SDS011;1458;49.728;9.228;2023-02-21T16:48:24;1.83;;;1.83;;
2896;SDS011;1458;49.728;9.228;2023-02-21T16:50:57;1.70;;;1.70;;
2896;SDS011;1458;49.728;9.228;2023-02-21T16:53:27;1.40;;;1.40;;
2896;SDS011;1458;49.728;9.228;2023-02-21T16:55:55;1.30;;;1.30;;
2896;SDS011;1458;49.728;9.228;2023-02-21T16:58:24;1.30;;;1.30;;
2896;SDS011;1458;49.728;9.228;2023-02-21T17:00:55;1.27;;;1.27;;
2896;SDS011;1458;49.728;9.228;2023-02-21T17:03:26;1.10;;;1.10;;